createdAt,value
2019-01-03T00:01:23.699Z,2.87
2019-01-03T00:04:25.272Z,1.23
2019-01-03T00:07:26.278Z,1.30
2019-01-03T00:10:27.149Z,0.87
2019-01-03T00:13:27.815Z,6.70
2019-01-03T00:16:32.373Z,3.50
2019-01-03T00:19:32.290Z,2.03
2019-01-03T00:22:36.392Z,1.10
2019-01-03T00:25:39.347Z,4.30
2019-01-03T00:28:40.525Z,2.63
2019-01-03T00:31:42.768Z,5.63
2019-01-03T00:34:43.752Z,3.57
2019-01-03T00:37:44.977Z,1.93
2019-01-03T00:40:46.259Z,1.60
2019-01-03T00:43:46.983Z,5.57
2019-01-03T00:46:48.069Z,2.73
2019-01-03T00:49:52.037Z,4.80
2019-01-03T00:52:53.484Z,1.53
2019-01-03T00:56:01.020Z,5.73
2019-01-03T00:59:02.404Z,2.20
2019-01-03T01:02:03.416Z,5.13
2019-01-03T01:05:04.494Z,5.57
2019-01-03T01:08:05.373Z,3.33
2019-01-03T01:11:06.506Z,3.27
2019-01-03T01:14:07.244Z,5.33
2019-01-03T01:17:14.428Z,2.87
2019-01-03T01:20:15.246Z,4.80
2019-01-03T01:23:04.662Z,2.67
2019-01-03T01:26:06.003Z,3.20
2019-01-03T01:29:04.690Z,0.60
2019-01-03T01:32:12.262Z,1.03
2019-01-03T01:35:13.836Z,5.37
2019-01-03T01:38:14.976Z,2.30
2019-01-03T01:41:19.127Z,1.73
2019-01-03T01:44:21.219Z,1.43
2019-01-03T01:47:22.437Z,2.83
2019-01-03T01:50:17.073Z,2.93
2019-01-03T01:53:18.250Z,4.33
2019-01-03T01:56:19.351Z,2.03
2019-01-03T01:59:20.580Z,6.13
2019-01-03T02:02:20.035Z,1.07
2019-01-03T02:05:21.115Z,4.47
2019-01-03T02:08:21.840Z,5.03
2019-01-03T02:11:23.003Z,4.10
2019-01-03T02:14:24.528Z,1.80
2019-01-03T02:17:25.494Z,1.17
2019-01-03T02:20:26.732Z,3.57
2019-01-03T02:23:34.003Z,1.37
2019-01-03T02:26:35.045Z,3.50
2019-01-03T02:29:36.404Z,1.40
2019-01-03T02:32:40.378Z,0.77
2019-01-03T02:35:36.904Z,2.97
2019-01-03T02:38:38.336Z,3.20
2019-01-03T02:41:39.375Z,3.23
2019-01-03T02:44:39.920Z,3.83
2019-01-03T02:47:40.810Z,1.53
2019-01-03T02:50:42.177Z,1.80
2019-01-03T02:53:43.675Z,4.00
2019-01-03T02:56:44.899Z,2.63
2019-01-03T02:59:51.919Z,2.10
2019-01-03T03:02:52.825Z,3.07
2019-01-03T03:05:53.786Z,2.63
2019-01-03T03:08:54.452Z,3.27
2019-01-03T03:12:01.464Z,2.33
2019-01-03T03:15:07.888Z,4.03
2019-01-03T03:18:08.560Z,3.47
2019-01-03T03:21:09.238Z,2.00
2019-01-03T03:24:10.003Z,6.03
2019-01-03T03:27:10.520Z,1.33
2019-01-03T03:30:11.349Z,0.87
2019-01-03T03:33:12.245Z,2.47
2019-01-03T03:36:13.099Z,1.63
2019-01-03T03:39:13.697Z,1.83
2019-01-03T03:42:14.622Z,1.67
2019-01-03T03:45:05.961Z,2.83
2019-01-03T03:48:07.759Z,1.60
2019-01-03T03:50:59.971Z,2.03
2019-01-03T03:54:08.901Z,1.80
2019-01-03T03:57:13.404Z,3.83
2019-01-03T04:00:20.811Z,0.80
2019-01-03T04:03:21.802Z,1.87
2019-01-03T04:06:23.205Z,1.57
2019-01-03T04:09:24.672Z,2.27
2019-01-03T04:12:25.853Z,1.53
2019-01-03T04:15:27.257Z,4.70
2019-01-03T04:18:28.334Z,2.27
2019-01-03T04:21:29.158Z,1.63
2019-01-03T04:24:27.413Z,2.37
2019-01-03T04:27:25.344Z,1.27
2019-01-03T04:30:26.872Z,3.10
2019-01-03T04:33:28.877Z,2.60
2019-01-03T04:36:29.706Z,1.63
2019-01-03T04:39:30.667Z,1.53
2019-01-03T04:42:31.789Z,1.13
2019-01-03T04:45:38.836Z,4.70
2019-01-03T04:48:39.686Z,1.57
2019-01-03T04:51:36.531Z,3.07
2019-01-03T04:54:37.819Z,1.17
2019-01-03T04:57:44.652Z,2.00
2019-01-03T05:00:53.252Z,0.33
2019-01-03T05:03:54.732Z,1.23
2019-01-03T05:07:02.085Z,1.77
2019-01-03T05:10:00.643Z,3.03
2019-01-03T05:13:02.079Z,2.33
2019-01-03T05:16:02.678Z,2.40
2019-01-03T05:19:03.534Z,0.97
2019-01-03T05:22:04.885Z,1.50
2019-01-03T05:25:06.290Z,2.30
2019-01-03T05:28:07.366Z,2.23
2019-01-03T05:31:08.657Z,2.20
2019-01-03T05:34:09.117Z,2.93
2019-01-03T05:37:10.652Z,2.47
2019-01-03T05:40:06.412Z,1.90
2019-01-03T05:43:07.220Z,1.60
2019-01-03T05:46:07.994Z,3.23
2019-01-03T05:49:09.199Z,2.23
2019-01-03T05:52:13.303Z,3.10
2019-01-03T05:55:14.005Z,1.10
2019-01-03T05:58:14.888Z,1.20
2019-01-03T06:01:16.701Z,0.40
2019-01-03T06:04:17.904Z,1.67
2019-01-03T06:07:18.744Z,0.73
2019-01-03T06:10:19.806Z,1.10
2019-01-03T06:13:20.679Z,1.33
2019-01-03T06:16:21.258Z,3.03
2019-01-03T06:19:22.957Z,2.43
2019-01-03T06:25:23.112Z,3.50
2019-01-03T06:28:24.500Z,1.50
2019-01-03T06:31:23.326Z,2.73
2019-01-03T06:34:24.507Z,2.83
2019-01-03T06:37:25.482Z,2.80
2019-01-03T06:40:26.525Z,0.30
2019-01-03T06:43:22.131Z,0.80
2019-01-03T06:46:33.569Z,3.43
2019-01-03T06:49:23.805Z,0.43
2019-01-03T06:52:25.171Z,0.43
2019-01-03T06:55:26.641Z,1.40
2019-01-03T06:58:28.191Z,2.00
2019-01-03T07:01:29.120Z,1.57
2019-01-03T07:04:30.142Z,0.50
2019-01-03T07:07:30.951Z,1.43
2019-01-03T07:10:31.775Z,2.40
2019-01-03T07:13:33.087Z,1.30
2019-01-03T07:16:36.900Z,1.07
2019-01-03T07:19:38.123Z,1.53
2019-01-03T07:22:44.732Z,0.20
2019-01-03T07:25:48.651Z,0.97
2019-01-03T07:28:49.775Z,2.77
2019-01-03T07:31:51.078Z,4.13
2019-01-03T07:34:40.544Z,2.10
2019-01-03T07:37:49.562Z,0.90
2019-01-03T07:40:53.136Z,0.30
2019-01-03T07:43:42.744Z,1.50
2019-01-03T07:46:50.299Z,0.30
2019-01-03T07:49:51.346Z,0.40
2019-01-03T07:52:47.196Z,1.43
2019-01-03T07:55:38.936Z,1.33
2019-01-03T07:58:39.423Z,2.80
2019-01-03T08:01:40.913Z,2.20
2019-01-03T08:04:41.772Z,2.10
2019-01-03T08:07:42.573Z,1.53
2019-01-03T08:10:43.926Z,2.57
2019-01-03T08:13:45.858Z,0.40
2019-01-03T08:16:46.432Z,2.80
2019-01-03T08:19:51.274Z,1.73
2019-01-03T08:22:46.764Z,1.87
2019-01-03T08:25:47.991Z,3.50
2019-01-03T08:28:55.015Z,0.60
2019-01-03T08:31:56.151Z,0.43
2019-01-03T08:34:47.861Z,1.80
2019-01-03T08:37:48.486Z,0.57
2019-01-03T08:40:49.669Z,2.33
2019-01-03T08:43:50.393Z,0.50
2019-01-03T08:46:51.314Z,1.47
2019-01-03T08:49:52.332Z,0.83
2019-01-03T08:52:59.725Z,1.13
2019-01-03T08:56:02.408Z,1.93
2019-01-03T08:59:03.460Z,3.50
2019-01-03T09:01:53.209Z,1.07
2019-01-03T09:05:01.508Z,1.93
2019-01-03T09:08:02.478Z,1.63
2019-01-03T09:11:03.919Z,1.23
2019-01-03T09:17:04.831Z,1.40
2019-01-03T09:19:54.579Z,2.90
2019-01-03T09:22:58.617Z,3.00
2019-01-03T09:25:48.083Z,2.37
2019-01-03T09:28:52.249Z,7.20
2019-01-03T09:31:53.463Z,2.83
2019-01-03T09:34:54.101Z,3.97
2019-01-03T09:37:55.031Z,1.33
2019-01-03T09:40:59.431Z,0.40
2019-01-03T09:43:55.803Z,0.53
2019-01-03T09:46:45.465Z,1.27
2019-01-03T09:49:27.937Z,1.80
2019-01-03T09:52:10.199Z,0.27
2019-01-03T09:54:52.613Z,0.20
2019-01-03T09:57:34.986Z,3.53
2019-01-03T10:00:17.735Z,0.67
2019-01-03T10:03:00.165Z,0.70
2019-01-03T10:05:42.264Z,1.43
2019-01-03T10:08:24.732Z,0.90
2019-01-03T10:10:55.391Z,2.13
2019-01-03T10:13:26.052Z,1.83
2019-01-03T10:16:07.896Z,1.77
2019-01-03T10:18:50.379Z,1.90
2019-01-03T10:21:20.930Z,2.00
2019-01-03T10:24:02.893Z,1.70
2019-01-03T10:26:45.623Z,3.20
2019-01-03T10:29:29.716Z,0.73
2019-01-03T10:32:11.463Z,1.07
2019-01-03T10:34:53.581Z,0.83
2019-01-03T10:37:36.216Z,0.80
2019-01-03T10:40:18.342Z,0.23
2019-01-03T10:43:00.226Z,0.67
2019-01-03T10:45:42.316Z,1.07
2019-01-03T10:48:24.804Z,0.63
2019-01-03T10:51:07.550Z,0.20
2019-01-03T10:53:49.831Z,1.03
2019-01-03T10:56:32.047Z,0.30
2019-01-03T10:59:13.935Z,4.13
2019-01-03T11:01:56.479Z,0.90
2019-01-03T11:04:39.231Z,1.07
2019-01-03T11:07:21.511Z,0.73
2019-01-03T11:10:03.651Z,1.47
2019-01-03T11:12:46.198Z,8.30
2019-01-03T11:15:28.116Z,0.50
2019-01-03T11:18:10.487Z,1.00
2019-01-03T11:20:52.932Z,0.53
2019-01-03T11:23:35.153Z,1.80
2019-01-03T11:26:06.140Z,2.23
2019-01-03T11:28:36.954Z,0.57
2019-01-03T11:31:07.540Z,0.30
2019-01-03T11:33:38.344Z,0.60
2019-01-03T11:36:08.853Z,1.40
2019-01-03T11:38:51.396Z,1.60
2019-01-03T11:41:33.798Z,1.03
2019-01-03T11:44:16.243Z,1.17
2019-01-03T11:46:58.109Z,0.80
2019-01-03T11:49:43.294Z,0.43
2019-01-03T11:52:25.111Z,0.20
2019-01-03T11:55:07.784Z,0.27
2019-01-03T11:57:50.155Z,1.80
2019-01-03T12:00:32.608Z,0.20
2019-01-03T12:03:15.291Z,1.53
2019-01-03T12:05:57.367Z,1.90
2019-01-03T12:08:39.276Z,2.50
2019-01-03T12:11:21.726Z,2.17
2019-01-03T12:14:03.639Z,0.63
2019-01-03T12:16:45.842Z,0.87
2019-01-03T12:19:28.033Z,0.40
2019-01-03T12:22:10.301Z,0.50
2019-01-03T12:25:09.403Z,0.43
2019-01-03T12:27:51.289Z,1.17
2019-01-03T12:30:33.039Z,0.60
2019-01-03T12:33:15.104Z,2.40
2019-01-03T12:35:57.737Z,1.53
2019-01-03T12:38:40.201Z,1.03
2019-01-03T12:41:22.205Z,5.27
2019-01-03T12:44:04.128Z,1.17
2019-01-03T12:46:46.490Z,3.13
2019-01-03T12:49:29.009Z,2.37
2019-01-03T12:51:59.521Z,3.97
2019-01-03T12:54:41.552Z,5.87
2019-01-03T12:57:23.921Z,1.23
2019-01-03T13:00:06.204Z,1.30
2019-01-03T13:02:48.005Z,2.27
2019-01-03T13:05:30.406Z,0.83
2019-01-03T13:08:12.080Z,2.63
2019-01-03T13:10:54.238Z,2.07
2019-01-03T13:13:36.382Z,1.80
2019-01-03T13:16:18.712Z,0.57
2019-01-03T13:19:00.476Z,2.37
2019-01-03T13:21:43.085Z,1.83
2019-01-03T13:24:25.580Z,3.70
2019-01-03T13:27:08.085Z,4.00
2019-01-03T13:29:50.584Z,3.20
2019-01-03T13:32:32.717Z,2.63
2019-01-03T13:35:14.716Z,2.63
2019-01-03T13:37:56.952Z,2.80
2019-01-03T13:40:39.188Z,0.70
2019-01-03T13:43:21.320Z,2.87
2019-01-03T13:46:03.360Z,2.67
2019-01-03T13:48:45.623Z,6.57
2019-01-03T13:51:27.306Z,2.97
2019-01-03T13:54:09.597Z,4.03
2019-01-03T13:56:52.107Z,5.03
2019-01-03T13:59:34.427Z,4.80
2019-01-03T14:02:16.508Z,4.23
2019-01-03T14:04:58.640Z,3.50
2019-01-03T14:07:40.849Z,8.37
2019-01-03T14:10:23.954Z,5.33
2019-01-03T14:13:06.188Z,10.13
2019-01-03T14:15:49.149Z,3.17
2019-01-03T14:18:31.308Z,7.73
2019-01-03T14:21:13.640Z,4.10
2019-01-03T14:23:55.451Z,5.53
2019-01-03T14:26:37.704Z,5.60
2019-01-03T14:29:19.397Z,2.77
2019-01-03T14:32:01.813Z,1.23
2019-01-03T14:34:44.222Z,2.97
2019-01-03T14:37:26.998Z,3.67
2019-01-03T14:40:08.773Z,8.27
2019-01-03T14:42:51.484Z,2.97
2019-01-03T14:45:33.920Z,4.47
2019-01-03T14:48:16.077Z,5.63
2019-01-03T14:50:58.612Z,9.27
2019-01-03T14:53:40.769Z,7.90
2019-01-03T14:56:23.268Z,5.40
2019-01-03T14:59:05.715Z,2.97
2019-01-03T15:01:48.056Z,4.83
2019-01-03T15:04:30.326Z,7.17
2019-01-03T15:07:13.463Z,9.67
2019-01-03T15:09:55.777Z,6.77
2019-01-03T15:12:38.213Z,5.37
2019-01-03T15:15:20.745Z,5.37
2019-01-03T15:18:02.889Z,6.07
2019-01-03T15:20:45.116Z,6.90
2019-01-03T15:23:27.667Z,5.50
2019-01-03T15:26:09.580Z,4.33
2019-01-03T15:28:52.305Z,4.87
2019-01-03T15:31:34.953Z,5.03
2019-01-03T15:34:17.351Z,7.73
2019-01-03T15:36:59.528Z,10.63
2019-01-03T15:39:41.555Z,7.47
2019-01-03T15:42:23.740Z,8.23
2019-01-03T15:45:06.017Z,5.57
2019-01-03T15:47:48.796Z,9.27
2019-01-03T15:50:31.713Z,11.80
2019-01-03T15:53:13.440Z,5.13
2019-01-03T15:55:55.761Z,6.83
2019-01-03T15:58:37.929Z,10.10
2019-01-03T16:01:19.766Z,5.47
2019-01-03T16:04:01.954Z,8.33
2019-01-03T16:06:44.177Z,6.80
2019-01-03T16:09:26.442Z,5.43
2019-01-03T16:12:08.705Z,8.53
2019-01-03T16:14:51.378Z,6.67
2019-01-03T16:17:33.281Z,10.97
2019-01-03T16:20:15.505Z,5.37
2019-01-03T16:22:58.154Z,8.83
2019-01-03T16:25:40.729Z,10.20
2019-01-03T16:28:22.345Z,14.80
2019-01-03T16:31:04.713Z,8.70
2019-01-03T16:33:46.684Z,11.13
2019-01-03T16:36:29.590Z,10.03
2019-01-03T16:39:11.985Z,10.70
2019-01-03T16:41:54.302Z,9.60
2019-01-03T16:44:36.802Z,12.70
2019-01-03T16:47:19.268Z,13.27
2019-01-03T16:50:01.129Z,10.80
2019-01-03T16:52:43.455Z,9.43
2019-01-03T16:55:25.527Z,12.07
2019-01-03T16:58:07.984Z,6.10
2019-01-03T17:00:49.832Z,9.27
2019-01-03T17:03:31.807Z,4.53
2019-01-03T17:06:14.300Z,6.57
2019-01-03T17:08:57.666Z,8.50
2019-01-03T17:11:39.468Z,9.07
2019-01-03T17:14:21.711Z,7.83
2019-01-03T17:17:03.515Z,11.00
2019-01-03T17:19:45.858Z,21.93
2019-01-03T17:22:27.619Z,12.60
2019-01-03T17:25:10.012Z,10.73
2019-01-03T17:27:51.873Z,11.00
2019-01-03T17:30:34.725Z,14.70
2019-01-03T17:33:17.417Z,7.03
2019-01-03T17:36:00.025Z,9.73
2019-01-03T17:38:43.796Z,14.97
2019-01-03T17:41:26.327Z,7.80
2019-01-03T17:44:08.040Z,18.37
2019-01-03T17:46:50.311Z,8.50
2019-01-03T17:49:32.767Z,16.93
2019-01-03T17:52:15.209Z,9.53
2019-01-03T17:54:58.086Z,11.53
2019-01-03T17:57:40.600Z,11.53
2019-01-03T18:00:23.335Z,7.03
2019-01-03T18:03:05.903Z,14.87
2019-01-03T18:05:48.073Z,9.23
2019-01-03T18:08:30.001Z,7.57
2019-01-03T18:11:19.495Z,8.17
2019-01-03T18:14:01.932Z,9.70
2019-01-03T18:16:44.239Z,9.57
2019-01-03T18:19:26.697Z,8.10
2019-01-03T18:22:08.900Z,7.43
2019-01-03T18:24:50.614Z,7.23
2019-01-03T18:27:32.844Z,7.63
2019-01-03T18:30:16.152Z,18.43
2019-01-03T18:32:58.149Z,10.63
2019-01-03T18:35:40.418Z,11.97
2019-01-03T18:38:22.928Z,12.10
2019-01-03T18:41:04.759Z,10.53
2019-01-03T18:43:46.804Z,13.40
2019-01-03T18:46:28.811Z,14.13
2019-01-03T18:49:11.079Z,19.07
2019-01-03T18:51:53.224Z,14.97
2019-01-03T18:54:35.138Z,18.90
2019-01-03T18:57:16.903Z,17.37
2019-01-03T18:59:59.169Z,14.87
2019-01-03T19:02:42.020Z,13.57
2019-01-03T19:05:12.464Z,13.53
2019-01-03T19:07:54.255Z,12.77
2019-01-03T19:10:35.935Z,9.50
2019-01-03T19:13:19.490Z,15.83
2019-01-03T19:16:02.588Z,10.63
2019-01-03T19:18:44.722Z,13.30
2019-01-03T19:21:27.213Z,13.20
2019-01-03T19:24:09.532Z,15.93
2019-01-03T19:26:51.918Z,15.83
2019-01-03T19:29:34.243Z,10.33
2019-01-03T19:32:16.851Z,11.73
2019-01-03T19:34:59.159Z,15.93
2019-01-03T19:37:41.953Z,10.90
2019-01-03T19:40:24.529Z,12.93
2019-01-03T19:43:07.615Z,14.43
2019-01-03T19:45:49.637Z,11.37
2019-01-03T19:48:31.103Z,12.67
2019-01-03T19:51:12.476Z,11.20
2019-01-03T19:53:42.789Z,10.07
2019-01-03T19:56:32.985Z,12.97
2019-01-03T19:59:14.678Z,9.33
2019-01-03T20:01:56.648Z,6.47
2019-01-03T20:04:38.767Z,11.13
2019-01-03T20:07:21.216Z,14.10
2019-01-03T20:10:02.133Z,8.83
2019-01-03T20:12:44.253Z,10.27
2019-01-03T20:15:26.272Z,11.97
2019-01-03T20:18:08.084Z,9.00
2019-01-03T20:20:53.023Z,9.37
2019-01-03T20:23:34.844Z,22.27
2019-01-03T20:26:17.599Z,28.80
2019-01-03T20:28:59.657Z,20.17
2019-01-03T20:31:41.895Z,11.47
2019-01-03T20:34:24.502Z,15.67
2019-01-03T20:37:06.644Z,12.57
2019-01-03T20:39:48.633Z,14.20
2019-01-03T20:42:31.448Z,12.67
2019-01-03T20:48:02.078Z,17.20
2019-01-03T20:50:43.899Z,21.20
2019-01-03T20:53:26.158Z,26.30
2019-01-03T20:55:57.019Z,19.27
2019-01-03T20:58:39.327Z,27.13
2019-01-03T21:01:21.836Z,22.03
2019-01-03T21:04:04.240Z,19.03
2019-01-03T21:06:45.983Z,18.60
2019-01-03T21:09:28.236Z,14.73
2019-01-03T21:12:10.980Z,14.63
2019-01-03T21:14:53.376Z,12.07
2019-01-03T21:17:35.209Z,11.47
2019-01-03T21:20:17.665Z,14.90
2019-01-03T21:22:59.656Z,10.33
2019-01-03T21:25:41.426Z,10.83
2019-01-03T21:28:23.219Z,9.10
2019-01-03T21:31:05.396Z,7.37
2019-01-03T21:33:47.596Z,7.90
2019-01-03T21:36:29.454Z,7.53
2019-01-03T21:39:12.073Z,7.10
2019-01-03T21:41:54.371Z,8.20
2019-01-03T21:44:36.617Z,8.97
2019-01-03T21:47:18.972Z,7.63
2019-01-03T21:50:01.389Z,18.53
2019-01-03T21:52:43.766Z,11.93
2019-01-03T21:58:22.400Z,11.37
2019-01-03T22:01:04.918Z,8.63
2019-01-03T22:03:46.974Z,10.47
2019-01-03T22:06:29.104Z,9.17
2019-01-03T22:09:11.012Z,8.63
2019-01-03T22:11:53.160Z,9.03
2019-01-03T22:14:35.457Z,8.43
2019-01-03T22:17:17.625Z,10.10
2019-01-03T22:20:00.263Z,7.77
2019-01-03T22:22:42.039Z,11.27
2019-01-03T22:25:24.377Z,9.87
2019-01-03T22:28:06.334Z,9.33
2019-01-03T22:30:48.740Z,10.27
2019-01-03T22:33:30.546Z,12.43
2019-01-03T22:36:12.458Z,9.57
2019-01-03T22:41:53.957Z,6.23
2019-01-03T22:44:36.088Z,8.30
2019-01-03T22:47:18.294Z,10.23
2019-01-03T22:50:00.714Z,15.73
2019-01-03T22:52:42.516Z,13.27
2019-01-03T22:55:25.900Z,15.00
2019-01-03T22:57:57.597Z,14.00
2019-01-03T23:00:40.164Z,12.53
2019-01-03T23:03:22.644Z,16.40
2019-01-03T23:06:04.825Z,14.70
2019-01-03T23:08:47.596Z,13.83
2019-01-03T23:11:29.832Z,18.17
2019-01-03T23:14:10.686Z,15.53
2019-01-03T23:16:52.918Z,15.93
2019-01-03T23:19:35.293Z,15.77
2019-01-03T23:22:17.486Z,15.63
2019-01-03T23:25:00.087Z,12.07
2019-01-03T23:27:46.167Z,13.57
2019-01-03T23:30:46.386Z,10.83
2019-01-03T23:33:28.030Z,10.73
2019-01-03T23:36:10.131Z,13.07
2019-01-03T23:41:48.704Z,9.33
2019-01-03T23:44:30.790Z,9.57
2019-01-03T23:47:13.053Z,6.77
2019-01-03T23:49:55.023Z,7.13
2019-01-03T23:52:36.882Z,6.83
2019-01-03T23:55:18.916Z,6.37
2019-01-03T23:58:01.368Z,9.67
